Time;durP1;ratioP1;P1;durP2;ratioP2;P2;SDS_P1;SDS_P2;PMS_P1;PMS_P2;Temp;Humidity;BMP_temperature;BMP_pressure;BME280_temperature;BME280_humidity;BME280_pressure;Samples;Min_cycle;Max_cycle;Signal;HPM_P1;HPM_P2
2023/05/29 00:02:08;;;;;;;0.50;0.50;;;16.20;90.30;;;;;;5037332;28;20084;-81
2023/05/29 00:04:36;;;;;;;0.97;0.97;;;16.30;90.40;;;;;;5041557;28;20052;-80
2023/05/29 00:07:02;;;;;;;0.25;0.22;;;16.10;90.50;;;;;;5035065;28;20463;-81
2023/05/29 00:09:28;;;;;;;0.20;0.20;;;16.10;90.50;;;;;;5034036;28;20052;-80
2023/05/29 00:11:53;;;;;;;0.53;0.53;;;16.00;90.80;;;;;;5037277;28;20060;-79
2023/05/29 00:14:19;;;;;;;0.30;0.30;;;16.10;90.70;;;;;;5034727;28;20025;-80
2023/05/29 00:16:46;;;;;;;0.88;0.88;;;16.10;90.70;;;;;;5031892;28;20033;-81
2023/05/29 00:19:13;;;;;;;;;;;16.00;90.80;;;;;;5038122;28;20037;-80
2023/05/29 00:21:39;;;;;;;;;;;16.00;91.00;;;;;;5033118;28;19955;-81
2023/05/29 00:24:05;;;;;;;0.85;0.65;;;15.90;91.20;;;;;;5027211;28;19966;-81
2023/05/29 00:26:30;;;;;;;0.20;0.20;;;15.90;91.10;;;;;;5027116;28;20041;-81
2023/05/29 00:28:56;;;;;;;0.10;0.10;;;16.00;91.00;;;;;;5036232;28;20561;-80
2023/05/29 00:31:22;;;;;;;0.20;0.20;;;15.90;91.10;;;;;;5019042;28;20067;-79
2023/05/29 00:33:47;;;;;;;0.53;0.53;;;15.90;91.20;;;;;;5034405;28;20104;-80
2023/05/29 00:36:13;;;;;;;0.00;0.00;;;15.90;91.10;;;;;;5037046;28;20087;-79
2023/05/29 00:38:39;;;;;;;0.10;0.10;;;15.90;91.10;;;;;;5044053;28;20056;-80
2023/05/29 00:41:05;;;;;;;0.10;0.10;;;15.90;91.10;;;;;;5043542;28;20029;-80
2023/05/29 00:43:30;;;;;;;0.73;0.73;;;15.90;91.20;;;;;;5044355;28;20031;-80
2023/05/29 00:45:56;;;;;;;0.73;0.73;;;15.80;91.20;;;;;;5041689;28;20072;-80
2023/05/29 00:48:23;;;;;;;0.30;0.30;;;15.60;91.40;;;;;;5043907;28;20079;-80
2023/05/29 00:50:48;;;;;;;3.05;1.65;;;15.60;91.60;;;;;;5039276;28;20850;-79
2023/05/29 00:53:15;;;;;;;0.20;0.20;;;15.70;91.60;;;;;;5036070;28;20120;-79
2023/05/29 00:55:41;;;;;;;1.10;1.10;;;15.70;91.60;;;;;;5042601;28;20615;-79
2023/05/29 00:58:07;;;;;;;1.13;1.13;;;15.60;91.60;;;;;;5041400;28;20037;-79
2023/05/29 01:00:34;;;;;;;14.10;1.23;;;15.60;91.70;;;;;;5039893;28;20079;-79
2023/05/29 01:03:02;;;;;;;0.63;0.63;;;15.60;91.80;;;;;;5034654;28;20025;-79
2023/05/29 01:05:29;;;;;;;0.10;0.10;;;15.50;92.00;;;;;;5022081;28;20513;-80
2023/05/29 01:07:54;;;;;;;0.32;0.32;;;15.50;92.10;;;;;;5036027;28;20029;-80
2023/05/29 01:10:21;;;;;;;0.40;0.40;;;15.40;92.10;;;;;;5035031;28;20041;-79
2023/05/29 01:12:49;;;;;;;0.38;0.38;;;15.40;92.20;;;;;;5024037;28;20770;-79
2023/05/29 01:15:27;;;;;;;0.20;0.20;;;15.40;92.20;;;;;;5036418;28;20033;-78
2023/05/29 01:18:23;;;;;;;0.80;0.80;;;15.40;92.30;;;;;;5037732;28;20106;-78
2023/05/29 01:20:56;;;;;;;0.75;0.75;;;15.40;92.30;;;;;;5035743;28;20033;-79
2023/05/29 01:23:37;;;;;;;1.13;0.45;;;15.40;92.30;;;;;;5032134;28;20147;-78
2023/05/29 01:26:37;;;;;;;0.90;0.90;;;15.30;92.50;;;;;;5033139;28;20099;-79
2023/05/29 01:29:06;;;;;;;0.20;0.20;;;15.30;92.80;;;;;;5036676;28;20052;-79
2023/05/29 01:31:34;;;;;;;0.32;0.32;;;15.20;92.90;;;;;;5028178;28;20025;-79
2023/05/29 01:34:00;;;;;;;1.95;1.50;;;15.20;92.90;;;;;;5038362;28;20179;-79
2023/05/29 01:36:26;;;;;;;0.60;0.60;;;15.20;92.90;;;;;;5031208;28;20029;-79
2023/05/29 01:38:54;;;;;;;2.53;0.38;;;15.10;92.90;;;;;;5029592;28;20104;-80
2023/05/29 01:41:23;;;;;;;2.08;0.40;;;15.20;93.00;;;;;;5035513;28;20040;-80
2023/05/29 01:43:50;;;;;;;0.35;0.35;;;15.20;92.90;;;;;;5035381;28;20021;-79
2023/05/29 01:46:16;;;;;;;0.20;0.20;;;15.20;92.80;;;;;;5032377;28;20144;-79
2023/05/29 01:48:43;;;;;;;0.43;0.20;;;15.20;92.90;;;;;;5042301;28;20507;-78
2023/05/29 01:51:10;;;;;;;0.80;0.80;;;15.20;92.80;;;;;;5039249;28;20033;-78
2023/05/29 01:53:40;;;;;;;0.73;0.73;;;15.10;92.70;;;;;;5017197;28;20029;-79
2023/05/29 01:56:07;;;;;;;0.10;0.10;;;15.10;92.90;;;;;;5025132;28;20079;-78
2023/05/29 01:58:34;;;;;;;0.57;0.57;;;15.00;93.00;;;;;;5040507;28;20579;-78
2023/05/29 02:01:03;;;;;;;0.40;0.40;;;15.00;92.80;;;;;;5015589;28;20037;-79
2023/05/29 02:03:29;;;;;;;0.30;0.30;;;15.00;92.80;;;;;;5036495;28;20024;-79
2023/05/29 02:05:58;;;;;;;0.87;0.83;;;15.10;92.70;;;;;;5042991;28;20103;-80
2023/05/29 02:08:24;;;;;;;0.63;0.63;;;15.10;92.70;;;;;;5029690;28;20033;-78
2023/05/29 02:10:50;;;;;;;1.45;1.35;;;15.00;92.80;;;;;;5036765;28;20029;-79
2023/05/29 02:13:16;;;;;;;0.20;0.20;;;15.00;92.80;;;;;;5031198;28;20813;-79
2023/05/29 02:15:42;;;;;;;0.47;0.40;;;15.00;92.70;;;;;;5039091;28;20028;-78
2023/05/29 02:18:12;;;;;;;0.00;0.00;;;15.00;92.70;;;;;;5034520;28;20507;-78
2023/05/29 02:20:38;;;;;;;0.30;0.30;;;15.00;92.60;;;;;;5040576;28;20036;-78
2023/05/29 02:23:04;;;;;;;0.80;0.77;;;15.10;92.60;;;;;;5031645;28;20048;-78
2023/05/29 02:25:30;;;;;;;3.67;1.17;;;15.00;92.50;;;;;;5018103;28;20036;-78
2023/05/29 02:27:56;;;;;;;0.10;0.10;;;15.00;92.60;;;;;;5040017;28;20052;-78
2023/05/29 02:30:22;;;;;;;0.30;0.30;;;14.90;92.70;;;;;;5022625;28;20025;-79
2023/05/29 02:32:47;;;;;;;0.37;0.33;;;14.90;92.70;;;;;;5026518;28;20124;-79
2023/05/29 02:35:14;;;;;;;5.72;1.65;;;14.90;92.70;;;;;;5031159;28;20112;-78
2023/05/29 02:37:41;;;;;;;0.73;0.73;;;14.90;92.80;;;;;;5011337;28;20037;-79
2023/05/29 02:40:08;;;;;;;4.10;1.40;;;14.80;92.80;;;;;;5041866;28;20080;-79
2023/05/29 02:42:34;;;;;;;0.50;0.50;;;14.90;92.80;;;;;;5037849;28;20029;-78
2023/05/29 02:44:59;;;;;;;0.45;0.45;;;14.70;93.00;;;;;;5032917;28;20245;-77
2023/05/29 02:47:25;;;;;;;0.10;0.10;;;14.70;93.10;;;;;;5031162;28;20068;-79
2023/05/29 02:49:51;;;;;;;0.10;0.10;;;14.80;93.10;;;;;;5032166;28;20049;-79
2023/05/29 02:52:17;;;;;;;0.30;0.30;;;14.70;93.10;;;;;;5026837;28;20104;-79
2023/05/29 02:54:42;;;;;;;0.50;0.50;;;14.80;93.00;;;;;;5037185;28;20088;-79
2023/05/29 02:57:08;;;;;;;21.27;1.00;;;14.70;93.10;;;;;;5034355;28;20033;-78
2023/05/29 02:59:34;;;;;;;0.10;0.10;;;14.70;93.20;;;;;;5032099;28;20272;-79
2023/05/29 03:01:59;;;;;;;1.93;1.13;;;14.60;93.40;;;;;;5032047;28;20028;-78
2023/05/29 03:04:26;;;;;;;1.60;0.77;;;14.50;93.60;;;;;;5035441;28;20029;-79
2023/05/29 03:06:53;;;;;;;0.45;0.45;;;14.50;93.70;;;;;;5018295;28;20068;-78
2023/05/29 03:09:19;;;;;;;0.30;0.30;;;14.50;93.70;;;;;;5039536;28;20057;-78
2023/05/29 03:11:47;;;;;;;0.30;0.30;;;14.50;93.70;;;;;;5031400;28;20033;-78
2023/05/29 03:14:13;;;;;;;0.57;0.57;;;14.50;93.90;;;;;;5040221;28;20027;-78
2023/05/29 03:16:40;;;;;;;0.30;0.30;;;14.50;93.50;;;;;;5030392;28;20721;-78
2023/05/29 03:19:07;;;;;;;0.60;0.60;;;14.50;93.70;;;;;;5033137;28;20083;-79
2023/05/29 03:21:33;;;;;;;1.08;1.08;;;14.50;93.70;;;;;;5035411;28;20021;-79
2023/05/29 03:24:00;;;;;;;0.45;0.45;;;14.40;93.80;;;;;;5035086;28;20036;-78
2023/05/29 03:26:26;;;;;;;0.65;0.45;;;14.30;93.90;;;;;;5032992;28;20037;-79
2023/05/29 03:28:52;;;;;;;0.17;0.17;;;14.40;93.80;;;;;;5034540;28;20053;-78
2023/05/29 03:31:17;;;;;;;0.22;0.22;;;14.40;93.80;;;;;;5029199;28;20645;-77
2023/05/29 03:33:43;;;;;;;0.37;0.27;;;14.40;93.80;;;;;;5032845;28;20114;-79
2023/05/29 03:36:09;;;;;;;0.95;0.95;;;14.30;93.80;;;;;;5029346;28;20041;-79
2023/05/29 03:38:34;;;;;;;0.33;0.33;;;14.30;93.90;;;;;;5028893;28;20180;-78
2023/05/29 03:41:00;;;;;;;0.57;0.57;;;14.30;93.90;;;;;;5027031;28;20040;-80
2023/05/29 03:43:26;;;;;;;0.75;0.75;;;14.20;93.90;;;;;;5032774;28;20036;-79
2023/05/29 03:45:51;;;;;;;1.45;0.88;;;14.30;93.90;;;;;;5039246;28;20811;-79
2023/05/29 03:48:17;;;;;;;0.20;0.20;;;14.30;93.90;;;;;;5038510;28;20029;-80
2023/05/29 03:50:44;;;;;;;3.57;1.13;;;14.30;93.90;;;;;;5039582;28;20028;-79
2023/05/29 03:53:09;;;;;;;;;;;14.20;93.80;;;;;;5041609;28;20041;-78
2023/05/29 03:55:35;;;;;;;0.20;0.20;;;14.20;93.80;;;;;;5036166;28;19924;-78
2023/05/29 03:58:01;;;;;;;0.20;0.20;;;14.20;93.80;;;;;;5037964;28;20036;-78
2023/05/29 04:00:27;;;;;;;0.20;0.20;;;14.20;93.80;;;;;;5037232;28;20033;-79
2023/05/29 04:02:52;;;;;;;1.10;0.68;;;14.20;93.80;;;;;;5030942;28;20025;-79
2023/05/29 04:05:18;;;;;;;0.20;0.20;;;14.10;93.80;;;;;;5032790;28;20628;-79
2023/05/29 04:07:44;;;;;;;0.10;0.10;;;14.00;93.90;;;;;;5037673;28;20025;-79
2023/05/29 04:10:10;;;;;;;0.30;0.30;;;14.00;94.10;;;;;;5029619;28;20150;-79
2023/05/29 04:12:35;;;;;;;0.38;0.38;;;14.00;94.00;;;;;;5018521;28;20065;-79
2023/05/29 04:15:01;;;;;;;0.65;0.65;;;14.10;94.00;;;;;;5037273;28;20107;-79
2023/05/29 04:17:27;;;;;;;0.25;0.25;;;14.00;94.00;;;;;;5036726;28;20100;-79
2023/05/29 04:19:52;;;;;;;0.43;0.43;;;14.00;94.00;;;;;;5033373;28;20036;-79
2023/05/29 04:22:19;;;;;;;0.10;0.10;;;14.00;94.00;;;;;;5032450;28;20075;-79
2023/05/29 04:24:45;;;;;;;0.80;0.80;;;14.10;93.90;;;;;;5035208;28;20037;-78
2023/05/29 04:27:13;;;;;;;0.77;0.43;;;14.10;93.90;;;;;;5033249;28;20534;-79
2023/05/29 04:29:42;;;;;;;0.30;0.30;;;14.10;93.80;;;;;;5030169;28;20167;-77
2023/05/29 04:32:11;;;;;;;0.68;0.65;;;14.20;93.70;;;;;;5034185;28;20048;-78
2023/05/29 04:34:38;;;;;;;0.63;0.45;;;14.20;93.90;;;;;;5036958;28;20033;-78
2023/05/29 04:37:05;;;;;;;0.60;0.60;;;14.30;93.50;;;;;;5036462;28;20359;-79
2023/05/29 04:39:32;;;;;;;0.10;0.10;;;14.50;93.20;;;;;;5040962;28;20029;-79
2023/05/29 04:42:01;;;;;;;2.72;1.13;;;14.90;92.30;;;;;;5042722;28;20033;-78
2023/05/29 04:44:26;;;;;;;0.22;0.22;;;15.00;91.90;;;;;;5043566;28;20106;-78
2023/05/29 04:46:53;;;;;;;0.52;0.52;;;15.20;91.60;;;;;;5041670;28;20129;-78
2023/05/29 04:49:20;;;;;;;0.15;0.15;;;15.60;90.70;;;;;;5042666;28;20029;-79
2023/05/29 04:51:46;;;;;;;0.90;0.75;;;16.10;90.00;;;;;;5040013;28;20109;-77
2023/05/29 04:54:12;;;;;;;0.30;0.30;;;16.30;88.70;;;;;;5042466;28;20119;-78
2023/05/29 04:56:39;;;;;;;0.73;0.47;;;16.60;87.60;;;;;;5038682;28;20064;-77
2023/05/29 04:59:06;;;;;;;0.10;0.10;;;16.90;86.40;;;;;;5041392;28;20010;-77
2023/05/29 05:01:33;;;;;;;0.40;0.40;;;17.20;85.20;;;;;;5036739;28;20578;-78
2023/05/29 05:03:59;;;;;;;;;;;17.50;84.30;;;;;;5044654;28;20029;-79
2023/05/29 05:06:26;;;;;;;1.92;1.00;;;17.70;82.90;;;;;;5034895;28;19924;-78
2023/05/29 05:08:52;;;;;;;0.20;0.20;;;18.00;82.10;;;;;;5038302;28;20017;-80
2023/05/29 05:11:22;;;;;;;0.35;0.35;;;18.20;80.70;;;;;;5035573;28;20061;-79
2023/05/29 05:13:48;;;;;;;0.20;0.20;;;18.50;79.40;;;;;;5038307;28;20028;-79
2023/05/29 05:16:14;;;;;;;1.03;0.80;;;18.80;78.20;;;;;;5031047;28;20030;-80
2023/05/29 05:18:39;;;;;;;0.47;0.47;;;19.10;77.20;;;;;;5040735;28;20851;-79
2023/05/29 05:21:06;;;;;;;0.20;0.20;;;19.30;76.10;;;;;;5038759;28;20041;-77
2023/05/29 05:23:32;;;;;;;0.15;0.15;;;19.40;75.80;;;;;;5037231;28;20045;-79
2023/05/29 05:25:57;;;;;;;0.67;0.67;;;19.40;75.60;;;;;;5037175;28;20060;-78
2023/05/29 05:28:23;;;;;;;0.00;0.00;;;19.90;74.20;;;;;;5033150;28;20060;-79
2023/05/29 05:30:49;;;;;;;0.00;0.00;;;20.30;72.70;;;;;;5029293;28;20152;-80
2023/05/29 05:33:15;;;;;;;0.40;0.40;;;20.60;71.00;;;;;;5031189;28;20072;-78
2023/05/29 05:35:40;;;;;;;0.67;0.67;;;20.90;70.00;;;;;;5027554;28;20476;-79
2023/05/29 05:38:06;;;;;;;0.87;0.67;;;20.90;70.20;;;;;;5033235;28;20541;-78
2023/05/29 05:40:32;;;;;;;1.90;0.70;;;20.90;69.30;;;;;;5042259;28;20032;-80
2023/05/29 05:42:58;;;;;;;0.30;0.30;;;21.20;68.30;;;;;;5042166;28;20074;-79
2023/05/29 05:45:24;;;;;;;0.20;0.20;;;21.10;67.90;;;;;;5038025;28;20053;-78
2023/05/29 05:47:50;;;;;;;0.03;0.03;;;21.70;67.30;;;;;;5043975;28;20025;-79
2023/05/29 05:50:15;;;;;;;0.50;0.50;;;21.90;65.30;;;;;;5042541;28;20685;-77
2023/05/29 05:52:41;;;;;;;0.10;0.10;;;21.40;66.30;;;;;;5040183;28;20064;-79
2023/05/29 05:55:07;;;;;;;0.38;0.22;;;21.70;65.40;;;;;;5038270;28;20024;-78
2023/05/29 05:57:35;;;;;;;0.50;0.50;;;22.20;64.00;;;;;;5043352;28;20032;-81
2023/05/29 06:00:04;;;;;;;0.25;0.25;;;22.70;62.50;;;;;;5042002;28;20017;-79
2023/05/29 06:02:30;;;;;;;0.30;0.25;;;22.90;61.90;;;;;;5042255;28;20032;-79
2023/05/29 06:04:55;;;;;;;0.00;0.00;;;22.80;62.50;;;;;;5022644;28;20073;-77
2023/05/29 06:07:21;;;;;;;0.07;0.07;;;23.40;61.10;;;;;;5039455;28;20048;-80
2023/05/29 06:09:48;;;;;;;0.17;0.17;;;23.80;59.70;;;;;;5037780;28;20518;-79
2023/05/29 06:12:15;;;;;;;0.00;0.00;;;24.00;59.30;;;;;;5036694;28;20028;-80
2023/05/29 06:14:41;;;;;;;0.10;0.10;;;24.00;58.60;;;;;;5024928;28;20483;-79
2023/05/29 06:17:06;;;;;;;0.40;0.40;;;24.60;57.50;;;;;;5042649;28;20036;-79
2023/05/29 06:19:32;;;;;;;0.10;0.10;;;24.80;57.80;;;;;;5037308;28;20391;-79
2023/05/29 06:21:58;;;;;;;0.27;0.27;;;25.30;56.60;;;;;;5037894;28;20052;-80
2023/05/29 06:24:23;;;;;;;0.00;0.00;;;25.30;55.30;;;;;;5031595;28;20024;-81
2023/05/29 06:26:50;;;;;;;0.00;0.00;;;25.50;55.20;;;;;;5028431;28;20037;-80
2023/05/29 06:29:15;;;;;;;;;;;25.80;53.90;;;;;;5037796;28;20041;-77
2023/05/29 06:31:41;;;;;;;;;;;26.10;53.60;;;;;;5041684;28;20377;-80
2023/05/29 06:34:07;;;;;;;0.20;0.20;;;26.90;52.60;;;;;;5038810;28;19908;-79
2023/05/29 06:36:32;;;;;;;0.17;0.17;;;26.90;52.20;;;;;;5030325;28;20408;-80
2023/05/29 06:38:58;;;;;;;0.35;0.35;;;27.10;51.90;;;;;;5038266;28;20403;-79
2023/05/29 06:41:24;;;;;;;0.00;0.00;;;27.10;51.20;;;;;;5037261;28;20033;-78
2023/05/29 06:43:51;;;;;;;1.48;0.85;;;27.40;50.80;;;;;;5039145;28;20037;-78
2023/05/29 06:46:17;;;;;;;0.30;0.30;;;27.10;51.20;;;;;;5040611;28;20091;-80
2023/05/29 06:48:43;;;;;;;0.00;0.00;;;27.60;50.50;;;;;;5041592;28;20511;-79
2023/05/29 06:51:11;;;;;;;0.20;0.20;;;27.50;49.80;;;;;;5040269;28;20760;-78
2023/05/29 06:53:40;;;;;;;0.20;0.20;;;27.60;48.30;;;;;;5028658;28;20021;-79
2023/05/29 06:56:06;;;;;;;0.00;0.00;;;27.90;48.90;;;;;;5035058;28;20078;-79
2023/05/29 06:58:33;;;;;;;0.32;0.32;;;28.40;47.90;;;;;;5031925;28;20029;-79
2023/05/29 07:01:00;;;;;;;0.30;0.30;;;28.50;48.10;;;;;;5033483;28;20108;-79
2023/05/29 07:03:26;;;;;;;0.00;0.00;;;28.40;47.80;;;;;;5030013;28;20029;-78
2023/05/29 07:05:52;;;;;;;0.05;0.05;;;29.30;46.80;;;;;;5031239;28;20032;-78
2023/05/29 07:08:18;;;;;;;0.13;0.13;;;28.80;46.70;;;;;;5025408;28;20041;-78
2023/05/29 07:10:44;;;;;;;7.28;1.05;;;28.80;46.00;;;;;;5029704;28;20029;-77
2023/05/29 07:13:10;;;;;;;0.10;0.10;;;29.40;46.50;;;;;;5027134;28;20115;-78
2023/05/29 07:15:37;;;;;;;0.00;0.00;;;28.90;47.10;;;;;;5039388;28;20111;-78
2023/05/29 07:18:03;;;;;;;1.13;0.65;;;29.30;46.10;;;;;;5035981;28;20030;-78
2023/05/29 07:20:28;;;;;;;1.25;0.52;;;29.90;45.00;;;;;;5030320;28;20028;-78
2023/05/29 07:22:54;;;;;;;0.28;0.28;;;29.70;45.00;;;;;;5027725;28;20065;-78
2023/05/29 07:25:20;;;;;;;0.00;0.00;;;30.60;45.10;;;;;;5024650;28;20488;-78
2023/05/29 07:27:46;;;;;;;0.00;0.00;;;30.70;44.10;;;;;;5022905;28;20052;-78
2023/05/29 07:30:12;;;;;;;0.03;0.03;;;31.00;43.90;;;;;;5031432;28;20128;-78
2023/05/29 07:32:37;;;;;;;0.00;0.00;;;31.90;43.30;;;;;;5027617;28;20104;-78
2023/05/29 07:35:04;;;;;;;0.08;0.08;;;32.00;43.40;;;;;;5034929;28;20039;-79
2023/05/29 07:37:30;;;;;;;0.00;0.00;;;32.30;41.60;;;;;;5025859;28;20033;-78
2023/05/29 07:39:56;;;;;;;1.08;0.30;;;32.40;41.60;;;;;;5022882;28;20935;-79
2023/05/29 07:42:21;;;;;;;;;;;31.90;41.40;;;;;;5029403;28;20025;-78
2023/05/29 07:44:47;;;;;;;0.00;0.00;;;31.20;40.50;;;;;;5017503;28;19930;-78
2023/05/29 07:47:13;;;;;;;0.10;0.10;;;32.30;40.70;;;;;;5024797;28;20018;-78
2023/05/29 07:49:39;;;;;;;;;;;32.00;40.30;;;;;;5033000;28;20400;-78
2023/05/29 07:52:05;;;;;;;0.00;0.00;;;32.70;39.90;;;;;;5029541;28;20777;-78
2023/05/29 07:54:32;;;;;;;;;;;33.00;40.10;;;;;;5032562;28;20029;-78
2023/05/29 07:56:59;;;;;;;0.75;0.57;;;34.00;39.60;;;;;;5012096;28;20012;-78
2023/05/29 07:59:25;;;;;;;0.00;0.00;;;34.40;38.90;;;;;;5029111;28;20112;-78
2023/05/29 08:01:51;;;;;;;0.00;0.00;;;35.40;38.00;;;;;;5030920;28;20025;-78
2023/05/29 08:04:17;;;;;;;0.10;0.10;;;35.20;37.60;;;;;;5027162;28;20030;-79
2023/05/29 08:06:43;;;;;;;0.10;0.10;;;36.00;37.10;;;;;;5040020;28;20486;-78
2023/05/29 08:09:10;;;;;;;3.13;2.00;;;35.70;36.80;;;;;;5045347;28;20029;-78
2023/05/29 08:11:36;;;;;;;0.00;0.00;;;35.50;36.80;;;;;;5037749;28;20029;-79
2023/05/29 08:14:03;;;;;;;0.03;0.03;;;36.20;36.90;;;;;;5037943;28;20079;-79
2023/05/29 08:16:28;;;;;;;0.00;0.00;;;36.80;36.00;;;;;;5042297;28;20025;-79
2023/05/29 08:18:55;;;;;;;0.00;0.00;;;36.40;36.10;;;;;;5032217;28;20075;-79
2023/05/29 08:21:20;;;;;;;0.10;0.10;;;37.90;35.40;;;;;;5040800;28;20024;-79
2023/05/29 08:23:46;;;;;;;0.10;0.10;;;38.10;34.90;;;;;;5033932;28;20025;-79
2023/05/29 08:26:13;;;;;;;0.20;0.20;;;38.40;35.20;;;;;;5029607;28;20033;-79
2023/05/29 08:28:38;;;;;;;0.10;0.10;;;38.20;34.50;;;;;;5039530;28;20048;-79
2023/05/29 08:31:04;;;;;;;0.00;0.00;;;38.70;35.60;;;;;;5036362;28;20029;-79
2023/05/29 08:33:30;;;;;;;0.25;0.25;;;39.00;34.90;;;;;;5038330;28;20021;-79
2023/05/29 08:35:58;;;;;;;0.00;0.00;;;39.20;36.10;;;;;;5018499;28;20036;-79
2023/05/29 08:38:25;;;;;;;0.20;0.20;;;38.80;34.50;;;;;;5036011;28;20034;-79
2023/05/29 08:40:51;;;;;;;0.10;0.10;;;39.30;34.60;;;;;;5028178;28;20035;-79
2023/05/29 08:43:22;;;;;;;0.03;0.03;;;38.40;33.40;;;;;;5035494;28;20025;-79
2023/05/29 08:45:56;;;;;;;0.00;0.00;;;39.00;32.90;;;;;;5033896;28;20060;-79
2023/05/29 08:48:26;;;;;;;0.30;0.30;;;38.70;31.90;;;;;;5028180;28;20056;-79
2023/05/29 08:50:54;;;;;;;0.30;0.25;;;39.60;32.80;;;;;;5031305;28;20076;-79
2023/05/29 08:53:22;;;;;;;0.17;0.17;;;40.30;32.70;;;;;;5032931;28;20108;-79
2023/05/29 08:55:51;;;;;;;0.30;0.30;;;40.90;32.60;;;;;;5026384;28;20037;-79
2023/05/29 08:58:17;;;;;;;0.13;0.13;;;40.80;31.20;;;;;;5029477;28;20029;-79
2023/05/29 09:00:47;;;;;;;0.40;0.40;;;40.40;30.70;;;;;;5032438;28;20024;-79
2023/05/29 09:03:13;;;;;;;0.00;0.00;;;40.60;32.40;;;;;;5025862;28;20032;-79
2023/05/29 09:05:40;;;;;;;0.00;0.00;;;40.60;31.10;;;;;;5035739;28;20040;-78
2023/05/29 09:08:08;;;;;;;0.03;0.03;;;40.60;31.70;;;;;;5039573;28;20029;-80
2023/05/29 09:10:34;;;;;;;0.00;0.00;;;39.50;32.20;;;;;;5025152;28;20033;-78
2023/05/29 09:13:00;;;;;;;0.00;0.00;;;40.00;32.10;;;;;;5029184;28;20025;-78
2023/05/29 09:15:26;;;;;;;0.00;0.00;;;40.70;31.40;;;;;;5041941;28;20037;-79
2023/05/29 09:17:52;;;;;;;0.10;0.10;;;40.60;31.70;;;;;;5039211;28;20029;-79
2023/05/29 09:20:19;;;;;;;0.00;0.00;;;40.80;31.00;;;;;;5041465;28;20075;-79
2023/05/29 09:22:57;;;;;;;0.00;0.00;;;40.90;31.40;;;;;;5037507;28;20103;-78
2023/05/29 09:25:26;;;;;;;0.10;0.10;;;40.40;30.50;;;;;;5039004;28;20761;-79
2023/05/29 09:27:56;;;;;;;0.32;0.32;;;41.00;30.60;;;;;;5036839;28;20029;-78
2023/05/29 09:30:43;;;;;;;0.20;0.20;;;39.50;29.80;;;;;;5037730;28;20042;-78
2023/05/29 09:33:10;;;;;;;0.52;0.52;;;40.80;30.20;;;;;;5030839;28;20032;-78
2023/05/29 09:35:47;;;;;;;0.00;0.00;;;39.80;30.20;;;;;;5025851;28;20022;-79
2023/05/29 09:38:15;;;;;;;0.10;0.10;;;40.60;30.30;;;;;;5019310;28;20377;-78
2023/05/29 09:40:41;;;;;;;0.08;0.08;;;40.90;30.10;;;;;;5032248;28;20021;-78
2023/05/29 09:43:12;;;;;;;0.00;0.00;;;41.40;31.00;;;;;;5031354;28;20061;-79
2023/05/29 09:45:39;;;;;;;0.30;0.30;;;40.00;30.50;;;;;;5031583;28;20041;-79
2023/05/29 09:48:15;;;;;;;0.00;0.00;;;39.40;29.60;;;;;;5030292;28;20643;-79
2023/05/29 09:50:50;;;;;;;0.20;0.20;;;41.00;30.30;;;;;;5030661;28;20078;-79
2023/05/29 09:53:25;;;;;;;0.20;0.20;;;42.30;30.40;;;;;;5025035;28;20029;-79
2023/05/29 09:55:52;;;;;;;;;;;41.40;31.00;;;;;;5033779;28;20112;-79
2023/05/29 09:58:18;;;;;;;0.00;0.00;;;42.10;30.60;;;;;;5027892;28;19908;-78
2023/05/29 10:00:45;;;;;;;0.10;0.10;;;41.80;30.00;;;;;;5029020;28;20032;-78
2023/05/29 10:03:12;;;;;;;0.00;0.00;;;40.30;30.20;;;;;;5029196;28;20049;-78
2023/05/29 10:05:41;;;;;;;0.45;0.45;;;40.70;30.00;;;;;;5024121;28;20036;-78
2023/05/29 10:08:17;;;;;;;0.15;0.15;;;40.70;30.60;;;;;;5040054;28;20021;-78
2023/05/29 10:10:46;;;;;;;3.20;0.70;;;41.80;29.30;;;;;;5042360;28;20020;-79
2023/05/29 10:13:14;;;;;;;0.00;0.00;;;41.90;29.70;;;;;;5040022;28;20539;-79
2023/05/29 10:15:45;;;;;;;0.10;0.10;;;40.00;29.80;;;;;;5040987;28;20017;-79
2023/05/29 10:18:20;;;;;;;0.00;0.00;;;39.90;30.00;;;;;;5039123;28;20033;-79
2023/05/29 10:20:50;;;;;;;;;;;41.00;31.10;;;;;;5039242;28;20021;-79
2023/05/29 10:23:16;;;;;;;0.10;0.10;;;40.70;29.40;;;;;;5039849;28;19909;-79
2023/05/29 10:25:48;;;;;;;0.25;0.25;;;39.20;29.40;;;;;;5037040;28;20049;-78
2023/05/29 10:28:14;;;;;;;0.85;0.85;;;40.30;29.50;;;;;;5038613;28;20087;-78
2023/05/29 10:30:53;;;;;;;2.60;0.52;;;40.00;29.80;;;;;;5033840;28;20043;-78
2023/05/29 10:33:32;;;;;;;0.35;0.35;;;40.20;30.40;;;;;;5030742;28;20529;-79
2023/05/29 10:36:05;;;;;;;0.82;0.50;;;38.50;30.10;;;;;;5024107;28;20034;-79
2023/05/29 10:38:31;;;;;;;0.47;0.47;;;38.50;30.30;;;;;;5040767;28;20083;-79
2023/05/29 10:41:26;;;;;;;0.55;0.55;;;37.70;31.30;;;;;;5033272;28;20040;-79
2023/05/29 10:43:54;;;;;;;0.00;0.00;;;35.40;33.70;;;;;;5030067;28;20079;-79
2023/05/29 10:46:20;;;;;;;0.15;0.08;;;34.30;33.30;;;;;;5029375;28;20146;-79
2023/05/29 10:48:49;;;;;;;0.00;0.00;;;32.90;35.80;;;;;;5023505;28;20891;-79
2023/05/29 10:51:26;;;;;;;3.70;0.93;;;32.10;37.20;;;;;;5023391;28;20085;-78
2023/05/29 10:53:52;;;;;;;0.05;0.05;;;32.20;38.80;;;;;;5029632;28;20030;-78
2023/05/29 10:56:24;;;;;;;0.10;0.10;;;31.40;38.50;;;;;;5035043;28;20383;-79
2023/05/29 10:58:54;;;;;;;1.42;1.27;;;31.40;39.70;;;;;;5032555;28;20559;-79
2023/05/29 11:01:27;;;;;;;0.50;0.40;;;31.40;38.10;;;;;;5027151;28;20950;-79
2023/05/29 11:04:15;;;;;;;1.05;0.95;;;31.50;38.90;;;;;;5021003;28;20366;-78
2023/05/29 11:06:41;;;;;;;0.30;0.30;;;31.70;38.90;;;;;;5040233;28;20566;-78
2023/05/29 11:09:32;;;;;;;5.22;0.68;;;31.80;39.60;;;;;;5030162;28;20798;-78
2023/05/29 11:12:38;;;;;;;1.25;0.47;;;31.50;39.40;;;;;;5023070;28;20021;-78
2023/05/29 11:15:06;;;;;;;0.10;0.10;;;31.50;39.90;;;;;;5028768;28;20021;-79
2023/05/29 11:17:38;;;;;;;0.35;0.30;;;31.50;41.00;;;;;;5037856;28;20017;-78
2023/05/29 11:20:09;;;;;;;0.20;0.20;;;31.40;40.10;;;;;;5025477;28;20030;-79
2023/05/29 11:22:47;;;;;;;0.65;0.65;;;30.70;42.00;;;;;;5020514;28;20965;-79
2023/05/29 11:25:14;;;;;;;0.10;0.10;;;30.30;41.60;;;;;;5031691;28;20116;-79
2023/05/29 11:27:41;;;;;;;0.43;0.43;;;30.30;43.10;;;;;;5033220;28;20030;-79
2023/05/29 11:30:07;;;;;;;0.80;0.63;;;30.10;46.00;;;;;;5034848;28;20500;-79
2023/05/29 11:32:36;;;;;;;0.10;0.10;;;29.70;39.90;;;;;;5034126;28;20024;-79
2023/05/29 11:35:08;;;;;;;0.47;0.47;;;29.60;39.60;;;;;;5032013;28;20078;-81
2023/05/29 11:37:38;;;;;;;0.25;0.25;;;29.20;41.10;;;;;;5035651;28;20021;-81
2023/05/29 11:40:11;;;;;;;0.28;0.28;;;29.60;40.40;;;;;;5036087;28;20029;-82
2023/05/29 11:42:44;;;;;;;0.52;0.38;;;29.80;45.60;;;;;;5020306;28;20033;-79
2023/05/29 11:45:21;;;;;;;0.30;0.30;;;29.80;48.10;;;;;;5029740;28;20037;-82
2023/05/29 11:47:58;;;;;;;1.45;0.45;;;29.80;45.70;;;;;;5037822;28;20033;-77
2023/05/29 11:50:25;;;;;;;0.50;0.50;;;29.20;45.30;;;;;;5044056;28;20029;-77
2023/05/29 11:52:51;;;;;;;0.25;0.25;;;29.30;40.80;;;;;;5043804;28;20029;-79
2023/05/29 11:55:21;;;;;;;0.52;0.52;;;29.20;42.60;;;;;;5036507;28;20392;-78
2023/05/29 11:57:47;;;;;;;0.75;0.75;;;29.40;46.00;;;;;;5040455;28;20056;-78
2023/05/29 12:00:15;;;;;;;0.20;0.20;;;29.60;45.60;;;;;;5042213;28;20033;-77
2023/05/29 12:02:46;;;;;;;0.10;0.10;;;29.30;44.80;;;;;;5032129;28;20144;-80
2023/05/29 12:05:14;;;;;;;0.50;0.50;;;29.10;44.30;;;;;;5032808;28;20040;-77
2023/05/29 12:07:48;;;;;;;0.28;0.28;;;29.40;48.40;;;;;;5031016;28;20893;-81
2023/05/29 12:10:15;;;;;;;2.42;0.52;;;29.50;46.90;;;;;;5032806;28;20491;-78
2023/05/29 12:12:41;;;;;;;0.10;0.10;;;29.20;45.30;;;;;;5039563;28;20584;-80
2023/05/29 12:15:08;;;;;;;0.68;0.68;;;29.00;46.40;;;;;;5039941;28;20044;-77
2023/05/29 12:17:35;;;;;;;0.10;0.10;;;29.10;41.50;;;;;;5040376;28;20120;-77
2023/05/29 12:20:08;;;;;;;4.85;1.00;;;29.30;40.50;;;;;;5043134;28;20056;-83
2023/05/29 12:22:35;;;;;;;0.03;0.03;;;29.30;47.50;;;;;;5033102;28;20021;-78
2023/05/29 12:25:07;;;;;;;0.52;0.52;;;29.20;47.20;;;;;;5033184;28;20828;-81
2023/05/29 12:27:37;;;;;;;1.75;1.05;;;29.00;47.10;;;;;;5020859;28;20605;-79
2023/05/29 12:30:05;;;;;;;0.70;0.70;;;29.10;47.40;;;;;;5033486;28;20045;-77
2023/05/29 12:32:45;;;;;;;0.25;0.25;;;29.00;43.50;;;;;;5035507;28;20112;-82
2023/05/29 12:35:12;;;;;;;0.35;0.35;;;28.80;40.50;;;;;;5036795;28;20141;-82
2023/05/29 12:38:02;;;;;;;0.30;0.30;;;28.60;39.80;;;;;;5037495;28;20021;-79
2023/05/29 12:40:29;;;;;;;0.65;0.65;;;28.70;40.20;;;;;;5040690;28;20074;-80
2023/05/29 12:43:02;;;;;;;0.17;0.17;;;28.50;38.20;;;;;;5031109;28;20026;-78
2023/05/29 12:45:30;;;;;;;0.38;0.38;;;28.50;38.40;;;;;;5033349;28;20029;-78
2023/05/29 12:48:03;;;;;;;0.45;0.45;;;28.40;38.30;;;;;;5024567;28;20106;-83
2023/05/29 12:50:37;;;;;;;0.30;0.30;;;28.30;39.00;;;;;;5041253;28;20075;-79
2023/05/29 12:53:08;;;;;;;0.40;0.40;;;28.40;37.70;;;;;;5036939;28;20048;-78
2023/05/29 12:55:39;;;;;;;0.65;0.65;;;28.30;37.10;;;;;;5042000;28;20035;-77